Terminal Aerodrome Forecast
Issued by NWS Pueblo, CO

Home | Current Version | Previous Version | Text Only | Print | Product List | Glossary On
Versions: 1 2 3 4 5 6 7 8 9 10 11 12 13
000
FTUS45 KPUB 060531
TAFPUB
TAF
KPUB 060531Z 0606/0706 VRB06KT P6SM SCT250
     FM061600 15008G18KT P6SM FEW120 SCT200
     FM061900 16015G25KT P6SM SCT120 SCT200
     FM070200 11012KT P6SM SCT200=

USA.gov is the U.S. government's official web portal to all federal, state and local government web resources and services.